首页
METAR-TAF:

METAR-TAF

机场 :

伊斯坦布尔 阿塔土克, 土耳其

阿塔蒂尔克国际机场

纬度: 40-58N, 经度: 028-49E, 海拔: 48米

当前天气观测

该预报发布于30分钟前的21:50 UTC
风速5节,风向北转东北,在东转东南之间变化
温度 20°C
湿度 56%
气压 1015 hPa
能见度10公里或以上
1500米以下无云,无积雨云

METAR: LTBA 252150Z 02005KT 350V120 CAVOK 20/11 Q1015 NOSIG RMK RWY17L 36003KT RWY05 02005KT RWY23 03004KT

时间: 01:20 (22:20 UTC)

预报

该预报发布于5小时和40分钟前的16:40 UTC
预报有效从25日的 18点(UTC)到 26日的 24点(UTC)
风速2节,风向多变
能见度10公里或以上
1500米以下无云,无积雨云
成为
从 26日的 03点(UTC)到 26日的 06点(UTC)
风速12节,风向
短暂存在
从 26日的 08点(UTC)到 26日的 12点(UTC)
散云层高于4000英尺
成为
从 26日的 15点(UTC)到 26日的 18点(UTC)
风速2节,风向多变

TAF: LTBA 251640Z 2518/2624 VRB02KT CAVOK BECMG 2603/2606 01012KT TEMPO 2608/2612 SCT040 BECMG 2615/2618 VRB02KT

超过4000个机场的气象观测和天气预报(METAR&TAF报告)。

可查询的气象台以黄色和红色小点在地图上表示。

将鼠标移到小点上方,可查看气象台名称。

然后点击查看天气观测和预报。

如需切换地图:点击带黑十字的绿色按钮放大地图;点击带横线的绿色按钮缩小地图;或者点击绿色箭头查看邻近地区的地图。


METAR-TAF: